Vliegveldwaarnemingen Nederland - (AUTO) METAR

Luchtvaartmeteorologische informatie voor operationeel gebruik en vluchtvoorbereiding is beschikbaar op www.luchtvaartmeteo.nl.

ZCZC
SA271955 EHKD     DE KOOY/DE KOOY   NLD   1 m.
METAR EHKD 271955Z AUTO 22009KT 190V250 9999 -RADZ FEW008 FEW015CB
BKN055 OVC092 17/15 Q1008
BLU TEMPO 24015G25KT 4000 SHRA SCT008 SCT020CB=

ZCZC
SA271955 EHFD     F3-FB-1   NLD   50 m.
METAR EHFD 271955Z AUTO 21013KT 9000 FEW006/// BKN018/// OVC021///
18/16 Q1007=

ZCZC
SA271955 EHAM     AMSTERDAM/SCHIPHOL   NLD   -3 m.
METAR EHAM 271955Z 18003KT 150V210 9999 -RA FEW009 17/16 Q1009 NOSIG=

ZCZC
SA271955 EHVL     VLIELAND   NLD   10 m.
METAR EHVL 271955Z AUTO 20011KT 9999 -RA SCT015CB SCT026 BKN029 17/16
Q1008 RERA REDZ WHT=

ZCZC
SA271955 EHJR     K13-A   NLD   37 m.
METAR EHJR 271955Z AUTO 20017KT //// // ///////// 16/16 Q1007 RE//
W16/H9=

ZCZC
SA271955 EHLE     LELYSTAD/LELYSTAD   NLD   -3 m.
METAR EHLE 271955Z AUTO 20006KT 9999 -RA FEW015CB 16/15 Q1009 RETSRA
TEMPO 7000 -SHRA SCT020CB=

ZCZC
SA271955 EHLW     LEEUWARDEN/LEEUWARDEN   NLD   1 m.
METAR EHLW 271955Z AUTO 20006KT 160V230 9999 -RA FEW076 OVC088 19/15
Q1008 RERA REDZ BLU=

ZCZC
SA271955 EHDL     ARNHEM/DEELEN   NLD   48 m.
METAR EHDL 271955Z AUTO 18004KT 140V250 9999 FEW015CB BKN032 BKN038
BKN042 16/16 Q1010 RERA BLU=

ZCZC
SA271955 EHGG     GRONINGEN/EELDE   NLD   5 m.
METAR EHGG 271955Z AUTO 19006KT 150V210 9999 -RA FEW015CB SCT041
18/16 Q1009 REDZRA TEMPO 6000 SHRA FEW030CB=

ZCZC
SA271955 EHSC     LICHTEILAND GOEREE   NLD   22 m.
METAR EHSC 271955Z AUTO 21016KT 9999 ///////// 18/16 Q1008 W18/H6=

ZCZC
SA271955 EHSA     EURO PLATFORM   NLD   19 m.
METAR EHSA 271955Z AUTO 19015KT 9999 ///////// 18/15 Q1008 W18/H7=

ZCZC
SA271955 EHWO     WOENSDRECHT/WOENSDRECHT   NLD   19 m.
METAR EHWO 271955Z AUTO 22005KT 180V240 9999 SCT070 BKN087 BKN092
17/15 Q1009 BLU=

ZCZC
SA271955 EHRD     ROTTERDAM/THE HAGUE AIRPORT   NLD   -5 m.
METAR EHRD 271955Z AUTO 19005KT 9999 NSC 17/16 Q1009 NOSIG=

ZCZC
SA271955 EHGR     GILZE-RIJEN/GILZE-RIJEN   NLD   14 m.
METAR EHGR 271955Z AUTO 19004KT 150V220 9999 FEW072 SCT078 BKN085
17/15 Q1010
BLU TEMPO 4000 SHRA FEW010 SCT020CB BKN025=

ZCZC
SA271955 EHEH     EINDHOVEN/EINDHOVEN   NLD   22 m.
METAR EHEH 271955Z AUTO 17004KT 150V210 9999 BKN083 BKN090 OVC096
17/15 Q1010
BLU NOSIG=

ZCZC
SA271955 EHVK     VOLKEL/VOLKEL   NLD   21 m.
METAR EHVK 271955Z AUTO 21002KT 9999 SCT065 BKN093 OVC098 17/15 Q1010
 BLU=

ZCZC
SA271955 EHBK     MAASTRICHT/MAASTRICHT-AACHEN   NLD   114 m.
METAR EHBK 271955Z AUTO 19009KT 9999 BKN039 BKN043 18/14 Q1011 NOSIG=

ZCZC
SA271955 EHFZ     F16-A   NLD   43 m.
METAR EHFZ 271955Z NIL=

ZCZC
SA271955 EHKV     K14-FA-1C   NLD   41 m.
METAR EHKV 271955Z AUTO 21016KT 9999 FEW005 17/16 Q1007=

ZCZC
SA271955 EHMG     L9-FF-1   NLD   44 m.
METAR EHMG 271955Z AUTO 22012KT 9999 FEW031 18/16 Q1009=

ZCZC
SA271955 EHMA     AWG-1   NLD   40 m.
METAR EHMA 271955Z AUTO VRB07KT 1800 +SHRA FEW015CB SCT020 BKN031
18/15 Q1009=

ZCZC
SA271955 EHDV     D15-FA-1   NLD   42 m.
METAR EHDV 271955Z AUTO 21012KT 170V250 5000 BR BKN004/// BKN005///
17/16 Q1006=

ZCZC
SA271955 EHAK     A12-CPP   NLD   48 m.
METAR EHAK 271955Z AUTO 16010KT 9999 FEW009/// BKN011/// OVC013///
18/16 Q1006=

ZCZC
SA271955 EHQE     HOORN-A   NLD   50 m.
METAR EHQE 271955Z AUTO /////KT 9999 FEW008 SCT015 17/15 Q1008=

ZCZC
SA271955 EHJA     J6-A   NLD   45 m.
METAR EHJA 271955Z AUTO 21010KT 8000 NSC 17/16 Q1005=

ZCZC
SA271955 EHPG     P11-B   NLD   41 m.
METAR EHPG 271955Z AUTO 21018KT 170V240 9999 NSC 17/16 Q1008=

ZCZC
SA271955 EHHW     BUITENGAATS/BG-OHVS2      42 m.
METAR EHHW 271955Z AUTO 24007KT 210V290 9999 FEW040/// 18/15 Q1008=

ZCZC
SA271955 EHFS     VLISSINGEN AWS   NLD   8 m.
METAR EHFS 271955Z AUTO 18011KT 9999 FEW023/// 18/16 Q1009=

ZCZC
SA271955 EHSG     BSA   NLD   43 m.
METAR EHSG 271955Z AUTO 21014KT //// // FEW015/// 18/15 Q1008 RE//=

27/07/2021 22.15 uur LT